Time;durP1;ratioP1;P1;durP2;ratioP2;P2;SDS_P1;SDS_P2;PMS_P1;PMS_P2;Temp;Humidity;BMP_temperature;BMP_pressure;BME280_temperature;BME280_humidity;BME280_pressure;Samples;Min_cycle;Max_cycle;Signal;HPM_P1;HPM_P2
2022/03/08 00:01:08;;;;;;;0.65;0.60;;;;;;;;;;1841767;77;26286;-47
2022/03/08 00:03:35;;;;;;;0.50;0.50;;;;;;;;;;1832355;76;26299;-45
2022/03/08 00:06:02;;;;;;;0.57;0.57;;;;;;;;;;1856100;77;26311;-48
2022/03/08 00:08:30;;;;;;;0.50;0.50;;;;;;;;;;1825517;77;26474;-52
2022/03/08 00:10:57;;;;;;;0.60;0.60;;;;;;;;;;1828091;76;26266;-46
2022/03/08 00:13:24;;;;;;;0.60;0.60;;;;;;;;;;1855420;76;26344;-47
2022/03/08 00:15:52;;;;;;;0.50;0.50;;;;;;;;;;1849714;76;26275;-44
2022/03/08 00:18:19;;;;;;;0.50;0.50;;;;;;;;;;1853759;76;26755;-44
2022/03/08 00:20:46;;;;;;;0.40;0.40;;;;;;;;;;1825944;76;26235;-43
2022/03/08 00:23:13;;;;;;;0.60;0.60;;;;;;;;;;1843461;76;26285;-45
2022/03/08 00:25:41;;;;;;;0.50;0.50;;;;;;;;;;1844451;76;26286;-48
2022/03/08 00:28:08;;;;;;;0.60;0.60;;;;;;;;;;1825429;76;26290;-43
2022/03/08 00:30:36;;;;;;;0.40;0.40;;;;;;;;;;1832463;76;26302;-46
2022/03/08 00:33:03;;;;;;;0.50;0.50;;;;;;;;;;1837478;77;26343;-43
2022/03/08 00:35:31;;;;;;;0.60;0.60;;;;;;;;;;1836798;77;26828;-44
2022/03/08 00:38:02;;;;;;;0.60;0.60;;;;;;;;;;1851273;76;26420;-44
2022/03/08 00:40:28;;;;;;;0.57;0.57;;;;;;;;;;1824015;76;26318;-44
2022/03/08 00:42:55;;;;;;;0.42;0.42;;;;;;;;;;1844763;76;26286;-45
2022/03/08 00:45:22;;;;;;;0.60;0.60;;;;;;;;;;1848062;76;26283;-47
2022/03/08 00:47:50;;;;;;;1.15;0.57;;;;;;;;;;1845004;76;26230;-43
2022/03/08 00:50:18;;;;;;;0.50;0.50;;;;;;;;;;1834009;76;26313;-44
2022/03/08 00:52:46;;;;;;;0.55;0.55;;;;;;;;;;1833995;76;26654;-46
2022/03/08 00:55:14;;;;;;;0.50;0.50;;;;;;;;;;1825347;77;26387;-49
2022/03/08 00:57:41;;;;;;;0.42;0.42;;;;;;;;;;1844781;76;26285;-47
2022/03/08 01:00:10;;;;;;;0.75;0.45;;;;;;;;;;1825387;76;26654;-48
2022/03/08 01:02:37;;;;;;;0.60;0.60;;;;;;;;;;1856064;76;26309;-45
2022/03/08 01:05:06;;;;;;;0.47;0.47;;;;;;;;;;1847350;76;26295;-43
2022/03/08 01:07:33;;;;;;;0.40;0.40;;;;;;;;;;1838508;76;26671;-44
2022/03/08 01:10:00;;;;;;;0.60;0.60;;;;;;;;;;1829046;76;26808;-46
2022/03/08 01:12:28;;;;;;;0.40;0.40;;;;;;;;;;1831897;77;26287;-43
2022/03/08 01:14:55;;;;;;;0.60;0.60;;;;;;;;;;1833492;76;26399;-43
2022/03/08 01:17:22;;;;;;;0.60;0.60;;;;;;;;;;1843648;76;26286;-43
2022/03/08 01:19:49;;;;;;;0.42;0.42;;;;;;;;;;1830806;76;26217;-44
2022/03/08 01:22:17;;;;;;;0.50;0.50;;;;;;;;;;1849988;76;26313;-44
2022/03/08 01:24:44;;;;;;;0.50;0.50;;;;;;;;;;1826567;77;26227;-46
2022/03/08 01:27:12;;;;;;;0.60;0.60;;;;;;;;;;1849543;77;26330;-44
2022/03/08 01:29:39;;;;;;;0.50;0.50;;;;;;;;;;1833151;76;26301;-46
2022/03/08 01:32:07;;;;;;;0.50;0.50;;;;;;;;;;1835091;76;26278;-47
2022/03/08 01:34:35;;;;;;;0.33;0.33;;;;;;;;;;1828077;76;26687;-44
2022/03/08 01:37:03;;;;;;;0.50;0.50;;;;;;;;;;1831343;76;26824;-45
2022/03/08 01:39:31;;;;;;;0.40;0.40;;;;;;;;;;1841465;76;26372;-50
2022/03/08 01:41:58;;;;;;;0.40;0.40;;;;;;;;;;1841334;77;26263;-45
2022/03/08 01:44:25;;;;;;;0.42;0.42;;;;;;;;;;1854030;76;26195;-46
2022/03/08 01:46:52;;;;;;;0.50;0.50;;;;;;;;;;1837781;77;26726;-48
2022/03/08 01:49:20;;;;;;;0.50;0.50;;;;;;;;;;1841088;76;26709;-43
2022/03/08 01:51:47;;;;;;;0.40;0.40;;;;;;;;;;1851984;76;26270;-44
2022/03/08 01:54:15;;;;;;;0.33;0.33;;;;;;;;;;1835430;77;26284;-44
2022/03/08 01:56:44;;;;;;;0.60;0.60;;;;;;;;;;1847913;77;26267;-46
2022/03/08 01:59:12;;;;;;;0.47;0.47;;;;;;;;;;1845948;76;26287;-45
2022/03/08 02:01:39;;;;;;;0.40;0.40;;;;;;;;;;1822163;76;26238;-42
2022/03/08 02:04:06;;;;;;;0.40;0.40;;;;;;;;;;1845488;76;26259;-42
2022/03/08 02:06:34;;;;;;;0.50;0.50;;;;;;;;;;1833270;77;26227;-47
2022/03/08 02:09:01;;;;;;;1.37;0.50;;;;;;;;;;1841036;76;26321;-45
2022/03/08 02:11:30;;;;;;;0.40;0.40;;;;;;;;;;1825094;77;26292;-43
2022/03/08 02:13:57;;;;;;;1.15;0.50;;;;;;;;;;1844687;76;26384;-43
2022/03/08 02:16:25;;;;;;;0.60;0.60;;;;;;;;;;1840687;76;26306;-45
2022/03/08 02:18:52;;;;;;;0.37;0.37;;;;;;;;;;1826124;76;26266;-43
2022/03/08 02:21:19;;;;;;;0.55;0.55;;;;;;;;;;1843052;76;26300;-44
2022/03/08 02:23:47;;;;;;;0.80;0.40;;;;;;;;;;1850872;76;26750;-44
2022/03/08 02:26:14;;;;;;;0.55;0.45;;;;;;;;;;1832329;76;26301;-47
2022/03/08 02:28:41;;;;;;;1.17;0.70;;;;;;;;;;1833622;77;26405;-45
2022/03/08 02:31:09;;;;;;;0.40;0.40;;;;;;;;;;1831622;76;26899;-46
2022/03/08 02:33:36;;;;;;;1.37;0.60;;;;;;;;;;1825426;76;26801;-44
2022/03/08 02:36:05;;;;;;;0.98;0.50;;;;;;;;;;1833138;77;27366;-44
2022/03/08 02:38:32;;;;;;;0.80;0.57;;;;;;;;;;1831570;76;26753;-42
2022/03/08 02:40:59;;;;;;;0.50;0.50;;;;;;;;;;1837485;77;26390;-44
2022/03/08 02:43:27;;;;;;;0.42;0.42;;;;;;;;;;1830650;77;26212;-44
2022/03/08 02:45:54;;;;;;;0.40;0.40;;;;;;;;;;1832519;77;26297;-43
2022/03/08 02:48:23;;;;;;;0.50;0.50;;;;;;;;;;1830269;77;26289;-46
2022/03/08 02:50:50;;;;;;;0.40;0.40;;;;;;;;;;1845143;76;26217;-42
2022/03/08 02:53:17;;;;;;;0.98;0.50;;;;;;;;;;1849425;77;26247;-43
2022/03/08 02:55:45;;;;;;;0.53;0.42;;;;;;;;;;1833924;76;26310;-45
2022/03/08 02:58:13;;;;;;;0.30;0.30;;;;;;;;;;1833844;76;26273;-43
2022/03/08 03:00:40;;;;;;;0.45;0.45;;;;;;;;;;1851960;77;26739;-44
2022/03/08 03:03:08;;;;;;;0.47;0.40;;;;;;;;;;1853005;77;26377;-45
2022/03/08 03:05:36;;;;;;;0.50;0.50;;;;;;;;;;1850881;77;26428;-48
2022/03/08 03:08:05;;;;;;;0.50;0.50;;;;;;;;;;1851107;77;26278;-42
2022/03/08 03:10:32;;;;;;;0.50;0.50;;;;;;;;;;1824177;77;26777;-46
2022/03/08 03:13:00;;;;;;;0.50;0.50;;;;;;;;;;1822126;79;26281;-46
2022/03/08 03:15:28;;;;;;;0.50;0.50;;;;;;;;;;1822442;79;26831;-44
2022/03/08 03:17:56;;;;;;;0.40;0.40;;;;;;;;;;1826071;77;26270;-42
2022/03/08 03:20:26;;;;;;;0.45;0.45;;;;;;;;;;1841096;77;27344;-44
2022/03/08 03:22:53;;;;;;;0.82;0.50;;;;;;;;;;1836673;76;26271;-43
2022/03/08 03:25:21;;;;;;;0.45;0.45;;;;;;;;;;1824661;76;26235;-43
2022/03/08 03:27:48;;;;;;;0.50;0.50;;;;;;;;;;1834604;78;26716;-43
2022/03/08 03:30:18;;;;;;;0.37;0.37;;;;;;;;;;1825274;76;26224;-44
2022/03/08 03:32:46;;;;;;;0.40;0.40;;;;;;;;;;1822830;76;26305;-47
2022/03/08 03:35:13;;;;;;;0.62;0.50;;;;;;;;;;1875010;76;26321;-46
2022/03/08 03:37:41;;;;;;;2.40;0.90;;;;;;;;;;1854104;76;26211;-47
2022/03/08 03:40:09;;;;;;;0.60;0.60;;;;;;;;;;1822664;78;26338;-43
2022/03/08 03:42:37;;;;;;;0.50;0.50;;;;;;;;;;1828101;78;26782;-45
2022/03/08 03:45:05;;;;;;;0.90;0.30;;;;;;;;;;1774261;81;26344;-43
2022/03/08 03:47:33;;;;;;;0.57;0.50;;;;;;;;;;1774714;81;26273;-42
2022/03/08 03:50:00;;;;;;;0.40;0.40;;;;;;;;;;1773490;80;27381;-42
2022/03/08 03:52:28;;;;;;;0.53;0.53;;;;;;;;;;1776587;80;26290;-43
2022/03/08 03:54:55;;;;;;;0.70;0.40;;;;;;;;;;1770857;81;26353;-45
2022/03/08 03:57:22;;;;;;;0.50;0.50;;;;;;;;;;1795354;79;25287;-47
2022/03/08 03:59:49;;;;;;;0.53;0.50;;;;;;;;;;1788196;79;26426;-45
2022/03/08 04:02:16;;;;;;;0.60;0.60;;;;;;;;;;1774736;81;26266;-43
2022/03/08 04:04:44;;;;;;;1.32;0.62;;;;;;;;;;1782464;79;26301;-44
2022/03/08 04:07:11;;;;;;;0.93;0.60;;;;;;;;;;1803357;79;25709;-47
2022/03/08 04:09:38;;;;;;;1.20;0.53;;;;;;;;;;1804291;79;26810;-44
2022/03/08 04:12:06;;;;;;;0.95;0.53;;;;;;;;;;1804459;79;26798;-45
2022/03/08 04:14:33;;;;;;;0.40;0.40;;;;;;;;;;1772491;79;26756;-42
2022/03/08 04:17:02;;;;;;;0.85;0.50;;;;;;;;;;1804034;79;26943;-44
2022/03/08 04:19:29;;;;;;;1.00;0.40;;;;;;;;;;1793785;79;26302;-42
2022/03/08 04:21:57;;;;;;;0.55;0.45;;;;;;;;;;1799843;79;26366;-43
2022/03/08 04:24:25;;;;;;;0.53;0.53;;;;;;;;;;1812186;78;26327;-43
2022/03/08 04:26:53;;;;;;;0.50;0.50;;;;;;;;;;1812221;79;26319;-43
2022/03/08 04:29:20;;;;;;;0.55;0.55;;;;;;;;;;1812380;79;26392;-46
2022/03/08 04:31:47;;;;;;;0.53;0.53;;;;;;;;;;1784439;79;26310;-42
2022/03/08 04:34:14;;;;;;;0.47;0.47;;;;;;;;;;1789495;80;26227;-43
2022/03/08 04:36:42;;;;;;;3.10;0.60;;;;;;;;;;1782303;80;26306;-42
2022/03/08 04:39:09;;;;;;;0.40;0.40;;;;;;;;;;1780865;80;26639;-43
2022/03/08 04:41:36;;;;;;;0.50;0.50;;;;;;;;;;1789367;80;26283;-46
2022/03/08 04:44:03;;;;;;;0.50;0.50;;;;;;;;;;1781625;80;26353;-42
2022/03/08 04:46:31;;;;;;;0.35;0.35;;;;;;;;;;1770112;79;26316;-43
2022/03/08 04:48:58;;;;;;;0.70;0.50;;;;;;;;;;1771720;80;26320;-44
2022/03/08 04:51:25;;;;;;;0.40;0.40;;;;;;;;;;1787122;80;26694;-46
2022/03/08 04:53:53;;;;;;;0.50;0.50;;;;;;;;;;1781061;80;26672;-45
2022/03/08 04:56:20;;;;;;;0.47;0.47;;;;;;;;;;1785661;79;26392;-43
2022/03/08 04:58:47;;;;;;;0.40;0.40;;;;;;;;;;1785305;79;26283;-46
2022/03/08 05:01:15;;;;;;;1.35;0.50;;;;;;;;;;1796552;79;26711;-43
2022/03/08 05:03:43;;;;;;;0.40;0.40;;;;;;;;;;1785900;79;26385;-45
2022/03/08 05:06:10;;;;;;;0.47;0.47;;;;;;;;;;1773242;81;26430;-42
2022/03/08 05:08:37;;;;;;;0.33;0.33;;;;;;;;;;1773353;81;26798;-45
2022/03/08 05:11:05;;;;;;;0.45;0.45;;;;;;;;;;1774533;80;26684;-43
2022/03/08 05:13:32;;;;;;;0.37;0.37;;;;;;;;;;1773424;81;26226;-43
2022/03/08 05:16:00;;;;;;;0.50;0.50;;;;;;;;;;1793528;79;26316;-42
2022/03/08 05:18:27;;;;;;;0.47;0.47;;;;;;;;;;1790287;79;26289;-46
2022/03/08 05:20:54;;;;;;;0.40;0.40;;;;;;;;;;1791464;79;26296;-44
2022/03/08 05:23:22;;;;;;;0.60;0.60;;;;;;;;;;1781131;79;26348;-43
2022/03/08 05:25:49;;;;;;;0.80;0.80;;;;;;;;;;1785227;79;26262;-44
2022/03/08 05:28:16;;;;;;;2.15;0.62;;;;;;;;;;1827691;76;26380;-42
2022/03/08 05:30:45;;;;;;;4.03;0.60;;;;;;;;;;1841743;76;26297;-45
2022/03/08 05:33:12;;;;;;;0.60;0.60;;;;;;;;;;1837879;77;26290;-42
2022/03/08 05:35:39;;;;;;;0.60;0.60;;;;;;;;;;1838463;77;26321;-44
2022/03/08 05:38:07;;;;;;;3.17;0.60;;;;;;;;;;1837526;76;26734;-44
2022/03/08 05:40:34;;;;;;;2.45;0.70;;;;;;;;;;1846943;76;26321;-45
2022/03/08 05:43:01;;;;;;;1.85;0.65;;;;;;;;;;1838913;77;26258;-43
2022/03/08 05:45:29;;;;;;;1.20;0.70;;;;;;;;;;1844477;77;26337;-43
2022/03/08 05:47:57;;;;;;;3.05;0.80;;;;;;;;;;1831940;76;26302;-45
2022/03/08 05:50:24;;;;;;;2.60;0.60;;;;;;;;;;1831087;76;26256;-47
2022/03/08 05:52:52;;;;;;;1.37;0.80;;;;;;;;;;1840833;76;26674;-44
2022/03/08 05:55:19;;;;;;;1.87;0.88;;;;;;;;;;1839840;77;26376;-47
2022/03/08 05:57:46;;;;;;;1.75;0.72;;;;;;;;;;1833337;77;27349;-43
2022/03/08 06:00:14;;;;;;;1.85;0.72;;;;;;;;;;1851172;76;26731;-43
2022/03/08 06:02:42;;;;;;;1.72;0.62;;;;;;;;;;1841199;77;26368;-45
2022/03/08 06:05:09;;;;;;;1.47;0.68;;;;;;;;;;1850046;77;26425;-43
2022/03/08 06:07:37;;;;;;;2.08;0.85;;;;;;;;;;1842897;78;26280;-44
2022/03/08 06:10:08;;;;;;;1.22;0.70;;;;;;;;;;1845711;77;26350;-45
2022/03/08 06:12:35;;;;;;;0.53;0.53;;;;;;;;;;1849793;77;26310;-46
2022/03/08 06:15:04;;;;;;;1.02;0.70;;;;;;;;;;1843378;77;26295;-45
2022/03/08 06:17:31;;;;;;;0.68;0.68;;;;;;;;;;1847229;77;26353;-44
2022/03/08 06:19:59;;;;;;;0.68;0.50;;;;;;;;;;1843819;76;26350;-46
2022/03/08 06:22:26;;;;;;;1.65;0.60;;;;;;;;;;1845335;76;27414;-47
2022/03/08 06:24:53;;;;;;;1.65;0.70;;;;;;;;;;1840010;77;26758;-49
2022/03/08 06:27:21;;;;;;;1.98;0.70;;;;;;;;;;1850662;77;26268;-45
2022/03/08 06:29:51;;;;;;;0.62;0.62;;;;;;;;;;1852393;76;26778;-45
2022/03/08 06:32:19;;;;;;;0.60;0.60;;;;;;;;;;1851867;77;26337;-43
2022/03/08 06:34:46;;;;;;;0.75;0.75;;;;;;;;;;1852755;77;26565;-48
2022/03/08 06:37:14;;;;;;;0.98;0.70;;;;;;;;;;1843033;77;26278;-44
2022/03/08 06:39:41;;;;;;;0.72;0.60;;;;;;;;;;1822161;79;26760;-43
2022/03/08 06:42:09;;;;;;;0.60;0.60;;;;;;;;;;1828457;77;27129;-44
2022/03/08 06:44:38;;;;;;;0.70;0.60;;;;;;;;;;1822273;78;26326;-48
2022/03/08 06:47:06;;;;;;;0.70;0.47;;;;;;;;;;1821866;79;26786;-43
2022/03/08 06:49:34;;;;;;;0.90;0.70;;;;;;;;;;1833130;76;26285;-44
2022/03/08 06:52:01;;;;;;;1.60;0.65;;;;;;;;;;1875881;76;26284;-44
2022/03/08 06:54:29;;;;;;;0.50;0.50;;;;;;;;;;1853966;76;26729;-43
2022/03/08 06:56:56;;;;;;;0.60;0.60;;;;;;;;;;1822707;77;26435;-43
2022/03/08 06:59:25;;;;;;;1.00;0.60;;;;;;;;;;1830503;76;26366;-45
2022/03/08 07:01:53;;;;;;;1.15;0.93;;;;;;;;;;1825476;76;26305;-46
2022/03/08 07:04:20;;;;;;;0.70;0.70;;;;;;;;;;1850929;77;26738;-43
2022/03/08 07:06:47;;;;;;;0.78;0.78;;;;;;;;;;1843451;76;26809;-45
2022/03/08 07:09:15;;;;;;;1.70;0.60;;;;;;;;;;1841427;76;26263;-45
2022/03/08 07:11:43;;;;;;;0.70;0.70;;;;;;;;;;1852587;77;26310;-43
2022/03/08 07:14:15;;;;;;;0.93;0.75;;;;;;;;;;1828857;76;26715;-45
2022/03/08 07:16:40;;;;;;;0.80;0.80;;;;;;;;;;1843306;76;26346;-47
2022/03/08 07:19:08;;;;;;;1.67;0.70;;;;;;;;;;1833759;76;26846;-45
2022/03/08 07:21:35;;;;;;;0.60;0.60;;;;;;;;;;1848382;76;26363;-43
2022/03/08 07:24:03;;;;;;;0.60;0.60;;;;;;;;;;1838769;77;26286;-50
2022/03/08 07:26:30;;;;;;;0.90;0.65;;;;;;;;;;1835429;76;26778;-51
2022/03/08 07:28:57;;;;;;;0.70;0.70;;;;;;;;;;1824765;78;26247;-48
2022/03/08 07:31:24;;;;;;;1.02;0.70;;;;;;;;;;1835457;78;26243;-47
2022/03/08 07:33:52;;;;;;;0.60;0.60;;;;;;;;;;1831383;78;26318;-49
2022/03/08 07:36:19;;;;;;;0.68;0.68;;;;;;;;;;1837454;78;26267;-43
2022/03/08 07:38:47;;;;;;;2.50;0.80;;;;;;;;;;1837772;78;26239;-46
2022/03/08 07:41:14;;;;;;;0.78;0.75;;;;;;;;;;1829634;78;26260;-43
2022/03/08 07:43:41;;;;;;;1.22;0.70;;;;;;;;;;1831314;76;26756;-45
2022/03/08 07:46:09;;;;;;;1.85;0.70;;;;;;;;;;1834077;78;27318;-45
2022/03/08 07:48:36;;;;;;;5.95;0.82;;;;;;;;;;1833524;78;26362;-46
2022/03/08 07:51:04;;;;;;;1.90;0.75;;;;;;;;;;1832689;78;26366;-46
2022/03/08 07:53:31;;;;;;;2.08;0.85;;;;;;;;;;1821474;78;26266;-43
2022/03/08 07:55:58;;;;;;;3.10;0.70;;;;;;;;;;1825793;78;26635;-43
2022/03/08 07:58:26;;;;;;;1.80;0.70;;;;;;;;;;1812198;79;26394;-45
2022/03/08 08:00:53;;;;;;;1.37;0.70;;;;;;;;;;1817070;78;26301;-44
2022/03/08 08:03:20;;;;;;;1.85;0.78;;;;;;;;;;1812167;79;26290;-45
2022/03/08 08:05:48;;;;;;;3.02;0.70;;;;;;;;;;1821465;78;26290;-46
2022/03/08 08:08:15;;;;;;;0.70;0.70;;;;;;;;;;1840162;78;26289;-43
2022/03/08 08:10:42;;;;;;;0.98;0.65;;;;;;;;;;1812416;78;26307;-44
2022/03/08 08:13:10;;;;;;;1.98;0.70;;;;;;;;;;1812239;79;26291;-44
2022/03/08 08:15:39;;;;;;;0.95;0.82;;;;;;;;;;1812768;79;26235;-42
2022/03/08 08:18:06;;;;;;;0.68;0.68;;;;;;;;;;1812818;79;26637;-44
2022/03/08 08:20:34;;;;;;;2.85;0.53;;;;;;;;;;1813314;78;26334;-42
2022/03/08 08:23:01;;;;;;;0.68;0.68;;;;;;;;;;1838861;78;26258;-42
2022/03/08 08:25:29;;;;;;;1.05;0.80;;;;;;;;;;1834660;78;26636;-43
2022/03/08 08:27:56;;;;;;;0.80;0.80;;;;;;;;;;1813226;79;26306;-46
2022/03/08 08:30:23;;;;;;;1.30;0.70;;;;;;;;;;1813288;79;26310;-42
2022/03/08 08:32:51;;;;;;;0.60;0.60;;;;;;;;;;1813309;79;26670;-44
2022/03/08 08:35:19;;;;;;;0.70;0.70;;;;;;;;;;1815674;78;26346;-43
2022/03/08 08:37:46;;;;;;;0.70;0.70;;;;;;;;;;1830143;76;26218;-46
2022/03/08 08:40:13;;;;;;;0.53;0.53;;;;;;;;;;1815857;79;26277;-45
2022/03/08 08:42:41;;;;;;;2.72;0.70;;;;;;;;;;1815981;79;26309;-43
2022/03/08 08:45:09;;;;;;;0.68;0.68;;;;;;;;;;1828270;76;26222;-45
2022/03/08 08:47:36;;;;;;;4.12;0.68;;;;;;;;;;1818497;76;26751;-42
2022/03/08 08:50:04;;;;;;;0.70;0.70;;;;;;;;;;1829247;76;26198;-42
2022/03/08 08:52:31;;;;;;;1.32;0.50;;;;;;;;;;1835121;76;26284;-43
2022/03/08 08:54:59;;;;;;;1.07;0.50;;;;;;;;;;1872474;76;26291;-42
2022/03/08 08:57:26;;;;;;;0.53;0.53;;;;;;;;;;1847314;76;26282;-44
2022/03/08 08:59:53;;;;;;;0.75;0.70;;;;;;;;;;1818407;78;26278;-46
2022/03/08 09:02:20;;;;;;;0.62;0.62;;;;;;;;;;1831123;78;26290;-45
2022/03/08 09:04:48;;;;;;;0.70;0.70;;;;;;;;;;1832602;78;26738;-45
2022/03/08 09:07:15;;;;;;;0.50;0.50;;;;;;;;;;1817380;78;27346;-42
2022/03/08 09:09:42;;;;;;;0.55;0.55;;;;;;;;;;1833988;78;26758;-42
2022/03/08 09:12:09;;;;;;;0.60;0.60;;;;;;;;;;1822264;78;27982;-42
2022/03/08 09:14:37;;;;;;;0.68;0.53;;;;;;;;;;1843242;78;26271;-45
2022/03/08 09:17:04;;;;;;;0.60;0.60;;;;;;;;;;1829273;78;26350;-46
2022/03/08 09:19:32;;;;;;;0.60;0.60;;;;;;;;;;1813307;78;26760;-45
2022/03/08 09:21:59;;;;;;;0.50;0.50;;;;;;;;;;1832831;78;26705;-45
2022/03/08 09:24:26;;;;;;;0.60;0.60;;;;;;;;;;1825651;78;26756;-47
2022/03/08 09:26:53;;;;;;;1.10;0.60;;;;;;;;;;1833198;76;26262;-46
2022/03/08 09:29:21;;;;;;;0.65;0.65;;;;;;;;;;1822191;77;26709;-45
2022/03/08 09:31:52;;;;;;;0.40;0.40;;;;;;;;;;1851045;76;26272;-45
2022/03/08 09:34:17;;;;;;;0.42;0.42;;;;;;;;;;1852141;76;26268;-45
2022/03/08 09:36:45;;;;;;;0.47;0.47;;;;;;;;;;1852530;77;26665;-44
2022/03/08 09:39:12;;;;;;;0.60;0.60;;;;;;;;;;1850702;77;26266;-43
2022/03/08 09:41:41;;;;;;;0.50;0.50;;;;;;;;;;1850588;77;26766;-42
2022/03/08 09:44:13;;;;;;;0.50;0.50;;;;;;;;;;1830890;76;26722;-43
2022/03/08 09:46:41;;;;;;;0.80;0.80;;;;;;;;;;1833793;76;26729;-43
2022/03/08 09:49:08;;;;;;;0.70;0.70;;;;;;;;;;1842393;76;26291;-44
2022/03/08 09:51:38;;;;;;;0.60;0.60;;;;;;;;;;1849147;76;27600;-45
2022/03/08 09:54:06;;;;;;;0.57;0.57;;;;;;;;;;1840859;76;26312;-42
2022/03/08 09:56:35;;;;;;;0.70;0.70;;;;;;;;;;1841338;77;26314;-42
2022/03/08 09:59:03;;;;;;;0.60;0.60;;;;;;;;;;1852343;77;26352;-43
2022/03/08 10:01:31;;;;;;;0.60;0.60;;;;;;;;;;1842657;76;26624;-43
2022/03/08 10:04:00;;;;;;;1.35;0.50;;;;;;;;;;1852263;77;26267;-45
2022/03/08 10:06:35;;;;;;;0.55;0.55;;;;;;;;;;1848409;77;26259;-43
2022/03/08 10:09:13;;;;;;;0.57;0.57;;;;;;;;;;1833433;76;26298;-44
2022/03/08 10:11:40;;;;;;;0.60;0.60;;;;;;;;;;1841124;76;26700;-43
2022/03/08 10:14:09;;;;;;;0.60;0.60;;;;;;;;;;1835647;77;26291;-49
2022/03/08 10:16:45;;;;;;;0.40;0.40;;;;;;;;;;1851601;76;26349;-49
2022/03/08 10:19:13;;;;;;;0.50;0.50;;;;;;;;;;1838080;76;26308;-47
2022/03/08 10:21:45;;;;;;;0.60;0.60;;;;;;;;;;1833576;76;26347;-48
2022/03/08 10:24:17;;;;;;;0.35;0.35;;;;;;;;;;1828169;76;26278;-44
2022/03/08 10:26:49;;;;;;;0.50;0.50;;;;;;;;;;1819212;77;26356;-48
2022/03/08 10:29:24;;;;;;;0.50;0.50;;;;;;;;;;1822058;78;26275;-45
2022/03/08 10:31:53;;;;;;;0.47;0.47;;;;;;;;;;1832443;78;26231;-45
2022/03/08 10:34:21;;;;;;;0.40;0.40;;;;;;;;;;1811120;78;26340;-47
2022/03/08 10:36:59;;;;;;;0.50;0.50;;;;;;;;;;1826198;78;26300;-45
2022/03/08 10:39:26;;;;;;;0.50;0.50;;;;;;;;;;1835779;76;26250;-43
2022/03/08 10:41:56;;;;;;;0.50;0.50;;;;;;;;;;1851333;76;26767;-43
2022/03/08 10:44:37;;;;;;;0.60;0.60;;;;;;;;;;1843797;76;26295;-44
2022/03/08 10:47:06;;;;;;;0.60;0.60;;;;;;;;;;1838790;78;26374;-42
2022/03/08 10:49:35;;;;;;;0.53;0.53;;;;;;;;;;1843522;78;26236;-43
2022/03/08 10:52:06;;;;;;;0.50;0.50;;;;;;;;;;1843205;78;26805;-43
2022/03/08 10:54:34;;;;;;;0.55;0.55;;;;;;;;;;1824833;78;26357;-45
2022/03/08 10:57:02;;;;;;;0.50;0.50;;;;;;;;;;1819751;78;25941;-44
2022/03/08 10:59:29;;;;;;;0.50;0.50;;;;;;;;;;1830375;78;26303;-45
2022/03/08 11:01:57;;;;;;;0.47;0.47;;;;;;;;;;1824495;78;26678;-44
2022/03/08 11:04:25;;;;;;;0.70;0.70;;;;;;;;;;1827769;78;26226;-43
2022/03/08 11:06:53;;;;;;;0.50;0.50;;;;;;;;;;1814009;78;26251;-42
2022/03/08 11:09:22;;;;;;;0.45;0.45;;;;;;;;;;1840425;78;25673;-43
2022/03/08 11:11:50;;;;;;;0.65;0.65;;;;;;;;;;1840834;78;26292;-48
2022/03/08 11:14:17;;;;;;;0.60;0.60;;;;;;;;;;1827102;78;25741;-44
2022/03/08 11:16:46;;;;;;;0.33;0.33;;;;;;;;;;1824780;78;26221;-42
2022/03/08 11:19:14;;;;;;;0.50;0.50;;;;;;;;;;1824774;78;26348;-43
2022/03/08 11:21:42;;;;;;;0.40;0.40;;;;;;;;;;1836854;78;27592;-43
2022/03/08 11:24:09;;;;;;;0.50;0.50;;;;;;;;;;1831974;78;26369;-47
2022/03/08 11:26:38;;;;;;;0.50;0.50;;;;;;;;;;1833377;77;26302;-48
2022/03/08 11:29:05;;;;;;;0.35;0.35;;;;;;;;;;1852434;77;26301;-42
2022/03/08 11:31:35;;;;;;;0.40;0.40;;;;;;;;;;1829111;76;26340;-48
2022/03/08 11:34:04;;;;;;;0.50;0.50;;;;;;;;;;1833876;77;25743;-46
2022/03/08 11:36:36;;;;;;;0.42;0.42;;;;;;;;;;1832020;77;26279;-42
2022/03/08 11:39:05;;;;;;;0.50;0.50;;;;;;;;;;1841090;76;26317;-44
2022/03/08 11:41:32;;;;;;;0.42;0.42;;;;;;;;;;1835009;76;26286;-42
2022/03/08 11:43:59;;;;;;;0.50;0.50;;;;;;;;;;1861747;76;26725;-42
2022/03/08 11:46:27;;;;;;;0.40;0.40;;;;;;;;;;1850288;76;26239;-42
2022/03/08 11:48:55;;;;;;;0.50;0.50;;;;;;;;;;1852707;77;26366;-43
2022/03/08 11:51:23;;;;;;;0.30;0.30;;;;;;;;;;1852487;76;26337;-47
2022/03/08 11:54:09;;;;;;;0.40;0.40;;;;;;;;;;1852711;76;25668;-44
2022/03/08 11:56:44;;;;;;;0.95;0.50;;;;;;;;;;1851058;77;26457;-43
2022/03/08 11:59:12;;;;;;;0.53;0.53;;;;;;;;;;1850788;77;26282;-43
2022/03/08 12:01:39;;;;;;;0.40;0.40;;;;;;;;;;1847322;76;26227;-43
2022/03/08 12:04:09;;;;;;;0.45;0.45;;;;;;;;;;1838999;77;26208;-45
2022/03/08 12:06:37;;;;;;;0.50;0.50;;;;;;;;;;1847641;76;26298;-45
2022/03/08 12:09:07;;;;;;;0.40;0.40;;;;;;;;;;1852442;76;26271;-43
2022/03/08 12:11:36;;;;;;;0.57;0.57;;;;;;;;;;1835740;77;26305;-44
2022/03/08 12:14:05;;;;;;;0.57;0.57;;;;;;;;;;1838384;77;26306;-51
2022/03/08 12:16:32;;;;;;;0.33;0.33;;;;;;;;;;1845879;77;26215;-43
2022/03/08 12:19:01;;;;;;;0.50;0.50;;;;;;;;;;1822097;76;26230;-47
2022/03/08 12:21:29;;;;;;;0.40;0.40;;;;;;;;;;1829384;76;26231;-43
2022/03/08 12:23:57;;;;;;;0.45;0.45;;;;;;;;;;1841012;76;26316;-45
2022/03/08 12:26:33;;;;;;;0.47;0.47;;;;;;;;;;1852798;76;25685;-49
2022/03/08 12:29:11;;;;;;;0.30;0.30;;;;;;;;;;1834874;77;26331;-46
2022/03/08 12:31:58;;;;;;;0.47;0.47;;;;;;;;;;1824706;78;26342;-44
2022/03/08 12:34:39;;;;;;;0.50;0.50;;;;;;;;;;1843564;78;26354;-47
2022/03/08 12:37:11;;;;;;;0.40;0.40;;;;;;;;;;1828765;78;26307;-42
2022/03/08 12:39:49;;;;;;;0.47;0.47;;;;;;;;;;1843540;78;26274;-47
2022/03/08 12:42:23;;;;;;;0.50;0.50;;;;;;;;;;1842384;76;26754;-46
2022/03/08 12:44:54;;;;;;;0.42;0.42;;;;;;;;;;1849523;76;26269;-48
2022/03/08 12:47:22;;;;;;;0.30;0.30;;;;;;;;;;1822077;78;25290;-43
2022/03/08 12:49:50;;;;;;;0.40;0.40;;;;;;;;;;1818089;78;26805;-43
2022/03/08 12:52:19;;;;;;;0.55;0.55;;;;;;;;;;1825807;78;26376;-43
2022/03/08 12:54:48;;;;;;;0.40;0.40;;;;;;;;;;1824852;78;26275;-48
2022/03/08 12:57:16;;;;;;;0.23;0.23;;;;;;;;;;1833009;78;26344;-44
2022/03/08 12:59:45;;;;;;;0.40;0.40;;;;;;;;;;1830526;78;26287;-46
2022/03/08 13:02:12;;;;;;;0.30;0.30;;;;;;;;;;1842956;78;26565;-43
2022/03/08 13:04:40;;;;;;;0.37;0.37;;;;;;;;;;1836160;78;26782;-42
2022/03/08 13:07:09;;;;;;;0.37;0.37;;;;;;;;;;1823550;78;26364;-46
2022/03/08 13:09:50;;;;;;;0.50;0.50;;;;;;;;;;1841358;78;26688;-42
2022/03/08 13:12:22;;;;;;;0.30;0.30;;;;;;;;;;1843366;78;26370;-43
2022/03/08 13:15:07;;;;;;;0.53;0.50;;;;;;;;;;1825596;78;26214;-47
2022/03/08 13:17:34;;;;;;;0.40;0.40;;;;;;;;;;1813422;78;26342;-44
2022/03/08 13:20:02;;;;;;;0.40;0.40;;;;;;;;;;1832062;78;26309;-50
2022/03/08 13:22:29;;;;;;;0.23;0.23;;;;;;;;;;1822027;78;26801;-49
2022/03/08 13:25:10;;;;;;;0.50;0.50;;;;;;;;;;1826354;78;26345;-47
2022/03/08 13:27:53;;;;;;;0.40;0.40;;;;;;;;;;1825489;77;26264;-43
2022/03/08 13:30:22;;;;;;;0.20;0.20;;;;;;;;;;1831055;77;26365;-44
2022/03/08 13:32:51;;;;;;;0.40;0.40;;;;;;;;;;1837585;77;26727;-45
2022/03/08 13:35:18;;;;;;;0.30;0.30;;;;;;;;;;1845255;77;26725;-44
2022/03/08 13:37:49;;;;;;;0.55;0.40;;;;;;;;;;1850475;76;26397;-43
2022/03/08 13:40:27;;;;;;;0.30;0.30;;;;;;;;;;1846465;77;26278;-47
2022/03/08 13:42:55;;;;;;;0.50;0.50;;;;;;;;;;1831777;77;26212;-48
2022/03/08 13:45:23;;;;;;;0.40;0.40;;;;;;;;;;1829823;77;26714;-43
2022/03/08 13:47:54;;;;;;;0.30;0.30;;;;;;;;;;1832501;77;26285;-46
2022/03/08 13:50:22;;;;;;;0.37;0.37;;;;;;;;;;1830655;77;26299;-45
2022/03/08 13:52:51;;;;;;;0.45;0.45;;;;;;;;;;1830449;77;26565;-46
2022/03/08 13:55:20;;;;;;;0.30;0.30;;;;;;;;;;1847992;77;26389;-42
2022/03/08 13:58:00;;;;;;;0.30;0.30;;;;;;;;;;1837446;77;26287;-42
2022/03/08 14:00:29;;;;;;;0.30;0.30;;;;;;;;;;1829509;77;26715;-45
2022/03/08 14:02:57;;;;;;;0.40;0.40;;;;;;;;;;1837227;77;26264;-46
2022/03/08 14:05:25;;;;;;;0.50;0.50;;;;;;;;;;1820548;77;26269;-42
2022/03/08 14:07:59;;;;;;;0.50;0.50;;;;;;;;;;1843634;77;26787;-44
2022/03/08 14:10:27;;;;;;;0.30;0.30;;;;;;;;;;1831656;77;26352;-43
2022/03/08 14:12:55;;;;;;;0.30;0.30;;;;;;;;;;1830405;77;26679;-48
2022/03/08 14:15:29;;;;;;;0.40;0.40;;;;;;;;;;1848470;77;26272;-43
2022/03/08 14:18:10;;;;;;;0.40;0.40;;;;;;;;;;1848965;77;25389;-42
2022/03/08 14:20:39;;;;;;;0.40;0.40;;;;;;;;;;1833628;77;26711;-43
2022/03/08 14:23:10;;;;;;;0.40;0.40;;;;;;;;;;1846223;77;26865;-43
2022/03/08 14:25:39;;;;;;;0.20;0.20;;;;;;;;;;1847372;77;26228;-43
2022/03/08 14:28:06;;;;;;;0.50;0.50;;;;;;;;;;1825177;77;26224;-45
2022/03/08 14:30:33;;;;;;;0.30;0.30;;;;;;;;;;1833516;76;26251;-43
2022/03/08 14:33:02;;;;;;;0.47;0.47;;;;;;;;;;1834259;76;26681;-42
2022/03/08 14:35:30;;;;;;;0.40;0.40;;;;;;;;;;1821781;76;26283;-44
2022/03/08 14:37:59;;;;;;;0.37;0.37;;;;;;;;;;1840683;76;26818;-46
2022/03/08 14:40:43;;;;;;;0.33;0.33;;;;;;;;;;1829753;76;26781;-42
2022/03/08 14:43:11;;;;;;;0.40;0.40;;;;;;;;;;1822172;77;26384;-46
2022/03/08 14:45:38;;;;;;;0.53;0.50;;;;;;;;;;1828252;76;26245;-46
2022/03/08 14:48:06;;;;;;;0.40;0.40;;;;;;;;;;1849462;76;26216;-43
2022/03/08 14:50:33;;;;;;;0.30;0.30;;;;;;;;;;1840325;77;26297;-46